Hauptseite
METAR-TAF:

METAR-TAF

Flughäfen :

Newquay Cornwall Airport

Newquay Cornwall, England

Breite: 50-26N, Länge: 005-00W, Höhe: 119 m

Beobachtung

Neuester Wetterbericht von vor 7 Stunden und 39 Minuten, um 20:20 UTC
Wind 8 kt aus Süd
Temperatur 11°C
Luftfeuchtigkeit 94%
Luftdruck 1018 hPa
Sichtweite 10 km oder mehr
Durchbrochene Bewölkung in der Höhe von 1000 ft

METAR: EGHQ 152020Z 17008KT 9999 BKN010 11/10 Q1018

Zeit: 03:59 (03:59 UTC)

Prognose

Neuester Wetterbericht von vor 7 Stunden und 31 Minuten, um 20:28 UTC
Gültige Prognose vom 15 um 20 UTC bis 15 um 22 UTC
Wind 9 kt aus Süd
Sichtweite: 1200 m
Durchbrochene Bewölkung in der Höhe von 100 ft
feuchter Dunst
Zeitweise
vom 15 um 20 UTC bis 15 um 22 UTC
Sichtweite 10 km oder mehr
Durchbrochene Bewölkung in der Höhe von 1200 ft

TAF: EGHQ 152028Z 1520/1522 17009KT 1200 BR BKN001 TEMPO 1520/1522 9999 NSW BKN012

Wetterbeobachtungen und Prognosen von mehr als 4000 Flughäfen (METAR und TAF Bericht).

Die verfügbaren Stationen werden durch gelbe und rote Markierungen auf der Karte dargestellt.

Führen Sie die Maus auf sie, um den Namen der Station zu sehen.

Darauf klicken, um die Beobachtung von Wetterbeobachtungen und Prognosen zu sehen.

Um die Karte zu ändern : klicken Sie auf den grünen Tasten mit einem schwarzen Kreuz Zum Vergrößern, auf den grünen Button mit einem Gedankenstrich zu verkleinern, oder auf die grünen Pfeile für benachbarte Karten.


METAR-TAF: